sensor_id;sensor_type;location;lat;lon;timestamp;P1;durP1;ratioP1;P2;durP2;ratioP2
18716;SDS011;9487;50.892;6.906;2022-12-29T00:00:18;1.27;;;0.90;;
18716;SDS011;9487;50.892;6.906;2022-12-29T00:02:45;0.83;;;0.60;;
18716;SDS011;9487;50.892;6.906;2022-12-29T00:05:12;0.93;;;0.70;;
18716;SDS011;9487;50.892;6.906;2022-12-29T00:07:39;0.90;;;0.80;;
18716;SDS011;9487;50.892;6.906;2022-12-29T00:10:07;0.77;;;0.70;;
18716;SDS011;9487;50.892;6.906;2022-12-29T00:12:34;0.73;;;0.70;;
18716;SDS011;9487;50.892;6.906;2022-12-29T00:15:24;0.60;;;0.60;;
18716;SDS011;9487;50.892;6.906;2022-12-29T00:18:02;0.80;;;0.80;;
18716;SDS011;9487;50.892;6.906;2022-12-29T00:20:32;0.77;;;0.67;;
18716;SDS011;9487;50.892;6.906;2022-12-29T00:23:17;0.80;;;0.73;;
18716;SDS011;9487;50.892;6.906;2022-12-29T00:26:02;0.80;;;0.80;;
18716;SDS011;9487;50.892;6.906;2022-12-29T00:28:46;1.80;;;0.70;;
18716;SDS011;9487;50.892;6.906;2022-12-29T00:31:31;1.30;;;0.90;;
18716;SDS011;9487;50.892;6.906;2022-12-29T00:34:15;1.30;;;0.90;;
18716;SDS011;9487;50.892;6.906;2022-12-29T00:36:59;1.67;;;0.90;;
18716;SDS011;9487;50.892;6.906;2022-12-29T00:39:26;0.90;;;0.60;;
18716;SDS011;9487;50.892;6.906;2022-12-29T00:42:12;0.50;;;0.50;;
18716;SDS011;9487;50.892;6.906;2022-12-29T00:44:58;0.90;;;0.70;;
18716;SDS011;9487;50.892;6.906;2022-12-29T00:47:25;0.70;;;0.60;;
18716;SDS011;9487;50.892;6.906;2022-12-29T00:49:52;1.80;;;0.97;;
18716;SDS011;9487;50.892;6.906;2022-12-29T00:52:18;0.83;;;0.63;;
18716;SDS011;9487;50.892;6.906;2022-12-29T00:54:45;1.07;;;0.90;;
18716;SDS011;9487;50.892;6.906;2022-12-29T00:57:13;1.00;;;0.70;;
18716;SDS011;9487;50.892;6.906;2022-12-29T00:59:40;0.80;;;0.70;;
18716;SDS011;9487;50.892;6.906;2022-12-29T01:02:08;0.40;;;0.40;;
18716;SDS011;9487;50.892;6.906;2022-12-29T01:04:36;0.47;;;0.40;;
18716;SDS011;9487;50.892;6.906;2022-12-29T01:07:03;0.43;;;0.40;;
18716;SDS011;9487;50.892;6.906;2022-12-29T01:09:30;0.53;;;0.40;;
18716;SDS011;9487;50.892;6.906;2022-12-29T01:12:18;0.53;;;0.40;;
18716;SDS011;9487;50.892;6.906;2022-12-29T01:15:05;0.80;;;0.40;;
18716;SDS011;9487;50.892;6.906;2022-12-29T01:17:33;0.30;;;0.30;;
18716;SDS011;9487;50.892;6.906;2022-12-29T01:20:00;0.30;;;0.30;;
18716;SDS011;9487;50.892;6.906;2022-12-29T01:22:27;0.30;;;0.20;;
18716;SDS011;9487;50.892;6.906;2022-12-29T01:24:54;0.37;;;0.33;;
18716;SDS011;9487;50.892;6.906;2022-12-29T01:27:22;0.60;;;0.40;;
18716;SDS011;9487;50.892;6.906;2022-12-29T01:29:49;0.77;;;0.50;;
18716;SDS011;9487;50.892;6.906;2022-12-29T01:32:16;0.90;;;0.40;;
18716;SDS011;9487;50.892;6.906;2022-12-29T01:34:43;0.40;;;0.40;;
18716;SDS011;9487;50.892;6.906;2022-12-29T01:37:10;0.80;;;0.50;;
18716;SDS011;9487;50.892;6.906;2022-12-29T01:39:37;0.87;;;0.60;;
18716;SDS011;9487;50.892;6.906;2022-12-29T01:42:04;1.27;;;0.60;;
18716;SDS011;9487;50.892;6.906;2022-12-29T01:44:55;0.50;;;0.50;;
18716;SDS011;9487;50.892;6.906;2022-12-29T01:47:25;0.80;;;0.40;;
18716;SDS011;9487;50.892;6.906;2022-12-29T01:49:57;1.00;;;0.53;;
18716;SDS011;9487;50.892;6.906;2022-12-29T01:52:26;0.57;;;0.57;;
18716;SDS011;9487;50.892;6.906;2022-12-29T01:54:56;1.00;;;0.63;;
18716;SDS011;9487;50.892;6.906;2022-12-29T01:57:24;0.70;;;0.57;;
18716;SDS011;9487;50.892;6.906;2022-12-29T01:59:56;2.07;;;0.70;;
18716;SDS011;9487;50.892;6.906;2022-12-29T02:02:28;0.70;;;0.70;;
18716;SDS011;9487;50.892;6.906;2022-12-29T02:04:56;0.50;;;0.50;;
18716;SDS011;9487;50.892;6.906;2022-12-29T02:07:26;0.63;;;0.63;;
18716;SDS011;9487;50.892;6.906;2022-12-29T02:09:54;1.47;;;0.73;;
18716;SDS011;9487;50.892;6.906;2022-12-29T02:12:22;1.07;;;0.70;;
18716;SDS011;9487;50.892;6.906;2022-12-29T02:14:50;1.57;;;0.90;;
18716;SDS011;9487;50.892;6.906;2022-12-29T02:17:27;1.27;;;0.70;;
18716;SDS011;9487;50.892;6.906;2022-12-29T02:20:24;1.57;;;0.67;;
18716;SDS011;9487;50.892;6.906;2022-12-29T02:23:13;1.80;;;0.80;;
18716;SDS011;9487;50.892;6.906;2022-12-29T02:26:00;0.97;;;0.73;;
18716;SDS011;9487;50.892;6.906;2022-12-29T02:28:49;0.80;;;0.70;;
18716;SDS011;9487;50.892;6.906;2022-12-29T02:31:35;0.87;;;0.80;;
18716;SDS011;9487;50.892;6.906;2022-12-29T02:34:10;1.23;;;0.83;;
18716;SDS011;9487;50.892;6.906;2022-12-29T02:36:51;1.93;;;0.80;;
18716;SDS011;9487;50.892;6.906;2022-12-29T02:39:27;1.60;;;0.87;;
18716;SDS011;9487;50.892;6.906;2022-12-29T02:42:06;1.80;;;0.87;;
18716;SDS011;9487;50.892;6.906;2022-12-29T02:44:40;1.90;;;0.80;;
18716;SDS011;9487;50.892;6.906;2022-12-29T02:47:20;0.70;;;0.70;;
18716;SDS011;9487;50.892;6.906;2022-12-29T02:49:55;1.37;;;0.77;;
18716;SDS011;9487;50.892;6.906;2022-12-29T02:52:29;1.10;;;0.70;;
18716;SDS011;9487;50.892;6.906;2022-12-29T02:55:00;2.63;;;0.80;;
18716;SDS011;9487;50.892;6.906;2022-12-29T02:57:30;1.17;;;0.80;;
18716;SDS011;9487;50.892;6.906;2022-12-29T03:00:00;1.27;;;0.70;;
18716;SDS011;9487;50.892;6.906;2022-12-29T03:02:35;1.40;;;0.70;;
18716;SDS011;9487;50.892;6.906;2022-12-29T03:05:17;1.10;;;0.80;;
18716;SDS011;9487;50.892;6.906;2022-12-29T03:07:52;1.20;;;0.73;;
18716;SDS011;9487;50.892;6.906;2022-12-29T03:10:30;0.97;;;0.73;;
18716;SDS011;9487;50.892;6.906;2022-12-29T03:13:07;0.73;;;0.60;;
18716;SDS011;9487;50.892;6.906;2022-12-29T03:16:02;0.90;;;0.77;;
18716;SDS011;9487;50.892;6.906;2022-12-29T03:18:39;1.07;;;0.57;;
18716;SDS011;9487;50.892;6.906;2022-12-29T03:21:13;0.67;;;0.60;;
18716;SDS011;9487;50.892;6.906;2022-12-29T03:23:44;0.80;;;0.60;;
18716;SDS011;9487;50.892;6.906;2022-12-29T03:26:16;0.70;;;0.70;;
18716;SDS011;9487;50.892;6.906;2022-12-29T03:28:46;0.90;;;0.60;;
18716;SDS011;9487;50.892;6.906;2022-12-29T03:31:16;0.63;;;0.50;;
18716;SDS011;9487;50.892;6.906;2022-12-29T03:33:46;0.60;;;0.50;;
18716;SDS011;9487;50.892;6.906;2022-12-29T03:36:16;0.50;;;0.50;;
18716;SDS011;9487;50.892;6.906;2022-12-29T03:38:50;0.63;;;0.63;;
18716;SDS011;9487;50.892;6.906;2022-12-29T03:41:23;0.80;;;0.70;;
18716;SDS011;9487;50.892;6.906;2022-12-29T03:43:54;1.90;;;0.80;;
18716;SDS011;9487;50.892;6.906;2022-12-29T03:46:21;1.27;;;0.60;;
18716;SDS011;9487;50.892;6.906;2022-12-29T03:48:49;0.57;;;0.57;;
18716;SDS011;9487;50.892;6.906;2022-12-29T03:51:16;1.30;;;0.83;;
18716;SDS011;9487;50.892;6.906;2022-12-29T03:53:43;0.80;;;0.60;;
18716;SDS011;9487;50.892;6.906;2022-12-29T03:56:10;1.33;;;0.60;;
18716;SDS011;9487;50.892;6.906;2022-12-29T03:58:37;1.53;;;0.50;;
18716;SDS011;9487;50.892;6.906;2022-12-29T04:01:04;0.87;;;0.53;;
18716;SDS011;9487;50.892;6.906;2022-12-29T04:03:30;0.73;;;0.70;;
18716;SDS011;9487;50.892;6.906;2022-12-29T04:05:59;1.30;;;0.70;;
18716;SDS011;9487;50.892;6.906;2022-12-29T04:08:25;0.53;;;0.50;;
18716;SDS011;9487;50.892;6.906;2022-12-29T04:10:52;1.37;;;0.70;;
18716;SDS011;9487;50.892;6.906;2022-12-29T04:13:19;1.33;;;0.90;;
18716;SDS011;9487;50.892;6.906;2022-12-29T04:15:46;2.23;;;0.70;;
18716;SDS011;9487;50.892;6.906;2022-12-29T04:18:13;1.70;;;0.77;;
18716;SDS011;9487;50.892;6.906;2022-12-29T04:20:41;0.80;;;0.60;;
18716;SDS011;9487;50.892;6.906;2022-12-29T04:23:27;1.50;;;0.80;;
18716;SDS011;9487;50.892;6.906;2022-12-29T04:25:54;0.93;;;0.57;;
18716;SDS011;9487;50.892;6.906;2022-12-29T04:28:20;0.70;;;0.60;;
18716;SDS011;9487;50.892;6.906;2022-12-29T04:30:47;1.50;;;0.60;;
18716;SDS011;9487;50.892;6.906;2022-12-29T04:33:14;0.60;;;0.60;;
18716;SDS011;9487;50.892;6.906;2022-12-29T04:35:41;0.63;;;0.60;;
18716;SDS011;9487;50.892;6.906;2022-12-29T04:38:09;2.20;;;0.70;;
18716;SDS011;9487;50.892;6.906;2022-12-29T04:40:38;0.97;;;0.70;;
18716;SDS011;9487;50.892;6.906;2022-12-29T04:43:06;0.67;;;0.53;;
18716;SDS011;9487;50.892;6.906;2022-12-29T04:45:34;0.67;;;0.67;;
18716;SDS011;9487;50.892;6.906;2022-12-29T04:48:00;1.80;;;0.60;;
18716;SDS011;9487;50.892;6.906;2022-12-29T04:50:27;1.30;;;0.63;;
18716;SDS011;9487;50.892;6.906;2022-12-29T04:52:54;1.40;;;0.80;;
18716;SDS011;9487;50.892;6.906;2022-12-29T04:55:21;1.20;;;0.90;;
18716;SDS011;9487;50.892;6.906;2022-12-29T04:57:50;0.77;;;0.57;;
18716;SDS011;9487;50.892;6.906;2022-12-29T05:00:16;1.00;;;0.60;;
18716;SDS011;9487;50.892;6.906;2022-12-29T05:02:44;0.67;;;0.60;;
18716;SDS011;9487;50.892;6.906;2022-12-29T05:05:10;1.93;;;0.80;;
18716;SDS011;9487;50.892;6.906;2022-12-29T05:07:37;0.80;;;0.80;;
18716;SDS011;9487;50.892;6.906;2022-12-29T05:10:05;1.30;;;0.73;;
18716;SDS011;9487;50.892;6.906;2022-12-29T05:12:33;2.53;;;0.70;;
18716;SDS011;9487;50.892;6.906;2022-12-29T05:15:03;1.17;;;0.73;;
18716;SDS011;9487;50.892;6.906;2022-12-29T05:17:31;0.93;;;0.70;;
18716;SDS011;9487;50.892;6.906;2022-12-29T05:19:58;0.90;;;0.77;;
18716;SDS011;9487;50.892;6.906;2022-12-29T05:22:25;0.93;;;0.77;;
18716;SDS011;9487;50.892;6.906;2022-12-29T05:24:52;1.20;;;0.60;;
18716;SDS011;9487;50.892;6.906;2022-12-29T05:27:19;1.47;;;0.80;;
18716;SDS011;9487;50.892;6.906;2022-12-29T05:29:45;0.77;;;0.70;;
18716;SDS011;9487;50.892;6.906;2022-12-29T05:32:14;0.90;;;0.70;;
18716;SDS011;9487;50.892;6.906;2022-12-29T05:34:40;1.50;;;0.87;;
18716;SDS011;9487;50.892;6.906;2022-12-29T05:37:07;0.90;;;0.80;;
18716;SDS011;9487;50.892;6.906;2022-12-29T05:39:34;0.63;;;0.60;;
18716;SDS011;9487;50.892;6.906;2022-12-29T05:42:01;0.83;;;0.70;;
18716;SDS011;9487;50.892;6.906;2022-12-29T05:44:28;1.10;;;0.83;;
18716;SDS011;9487;50.892;6.906;2022-12-29T05:46:55;1.90;;;0.70;;
18716;SDS011;9487;50.892;6.906;2022-12-29T05:49:23;1.17;;;0.57;;
18716;SDS011;9487;50.892;6.906;2022-12-29T05:51:50;0.93;;;0.70;;
18716;SDS011;9487;50.892;6.906;2022-12-29T05:54:16;0.63;;;0.50;;
18716;SDS011;9487;50.892;6.906;2022-12-29T05:56:43;1.43;;;0.73;;
18716;SDS011;9487;50.892;6.906;2022-12-29T05:59:10;1.13;;;0.70;;
18716;SDS011;9487;50.892;6.906;2022-12-29T06:01:37;1.20;;;0.70;;
18716;SDS011;9487;50.892;6.906;2022-12-29T06:04:04;0.83;;;0.70;;
18716;SDS011;9487;50.892;6.906;2022-12-29T06:06:32;0.80;;;0.70;;
18716;SDS011;9487;50.892;6.906;2022-12-29T06:08:59;2.00;;;0.80;;
18716;SDS011;9487;50.892;6.906;2022-12-29T06:11:26;0.90;;;0.53;;
18716;SDS011;9487;50.892;6.906;2022-12-29T06:13:53;1.40;;;0.50;;
18716;SDS011;9487;50.892;6.906;2022-12-29T06:16:19;1.40;;;0.83;;
18716;SDS011;9487;50.892;6.906;2022-12-29T06:18:46;1.67;;;0.93;;
18716;SDS011;9487;50.892;6.906;2022-12-29T06:21:13;3.17;;;1.90;;
18716;SDS011;9487;50.892;6.906;2022-12-29T06:23:41;1.57;;;0.80;;
18716;SDS011;9487;50.892;6.906;2022-12-29T06:26:08;1.00;;;0.80;;
18716;SDS011;9487;50.892;6.906;2022-12-29T06:28:35;1.27;;;0.93;;
18716;SDS011;9487;50.892;6.906;2022-12-29T06:31:02;1.50;;;0.90;;
18716;SDS011;9487;50.892;6.906;2022-12-29T06:33:29;0.80;;;0.60;;
18716;SDS011;9487;50.892;6.906;2022-12-29T06:35:56;0.67;;;0.60;;
18716;SDS011;9487;50.892;6.906;2022-12-29T06:38:23;0.80;;;0.40;;
18716;SDS011;9487;50.892;6.906;2022-12-29T06:40:51;1.37;;;0.80;;
18716;SDS011;9487;50.892;6.906;2022-12-29T06:43:18;0.60;;;0.47;;
18716;SDS011;9487;50.892;6.906;2022-12-29T06:45:44;0.60;;;0.60;;
18716;SDS011;9487;50.892;6.906;2022-12-29T06:48:11;1.40;;;0.80;;
18716;SDS011;9487;50.892;6.906;2022-12-29T06:50:38;0.80;;;0.60;;
18716;SDS011;9487;50.892;6.906;2022-12-29T06:53:05;2.07;;;0.60;;
18716;SDS011;9487;50.892;6.906;2022-12-29T06:55:32;0.63;;;0.60;;
18716;SDS011;9487;50.892;6.906;2022-12-29T06:58:00;1.77;;;0.70;;
18716;SDS011;9487;50.892;6.906;2022-12-29T07:00:27;1.90;;;0.77;;
18716;SDS011;9487;50.892;6.906;2022-12-29T07:02:54;1.10;;;0.57;;
18716;SDS011;9487;50.892;6.906;2022-12-29T07:05:23;1.23;;;1.00;;
18716;SDS011;9487;50.892;6.906;2022-12-29T07:07:51;1.30;;;0.60;;
18716;SDS011;9487;50.892;6.906;2022-12-29T07:10:19;1.37;;;0.60;;
18716;SDS011;9487;50.892;6.906;2022-12-29T07:12:45;0.97;;;0.60;;
18716;SDS011;9487;50.892;6.906;2022-12-29T07:15:14;0.70;;;0.60;;
18716;SDS011;9487;50.892;6.906;2022-12-29T07:17:41;2.10;;;0.80;;
18716;SDS011;9487;50.892;6.906;2022-12-29T07:20:08;0.83;;;0.50;;
18716;SDS011;9487;50.892;6.906;2022-12-29T07:22:35;1.63;;;0.60;;
18716;SDS011;9487;50.892;6.906;2022-12-29T07:25:03;2.10;;;0.80;;
18716;SDS011;9487;50.892;6.906;2022-12-29T07:27:31;1.30;;;0.60;;
18716;SDS011;9487;50.892;6.906;2022-12-29T07:29:58;1.37;;;0.70;;
18716;SDS011;9487;50.892;6.906;2022-12-29T07:32:26;2.37;;;0.70;;
18716;SDS011;9487;50.892;6.906;2022-12-29T07:34:53;2.63;;;0.70;;
18716;SDS011;9487;50.892;6.906;2022-12-29T07:37:20;1.23;;;0.70;;
18716;SDS011;9487;50.892;6.906;2022-12-29T07:39:46;1.47;;;0.57;;
18716;SDS011;9487;50.892;6.906;2022-12-29T07:42:13;1.50;;;0.90;;
18716;SDS011;9487;50.892;6.906;2022-12-29T07:44:40;1.60;;;0.90;;
18716;SDS011;9487;50.892;6.906;2022-12-29T07:47:07;1.97;;;1.27;;
18716;SDS011;9487;50.892;6.906;2022-12-29T07:49:35;1.90;;;0.90;;
18716;SDS011;9487;50.892;6.906;2022-12-29T07:52:02;1.43;;;0.80;;
18716;SDS011;9487;50.892;6.906;2022-12-29T07:54:29;3.13;;;0.93;;
18716;SDS011;9487;50.892;6.906;2022-12-29T07:56:56;1.80;;;0.80;;
18716;SDS011;9487;50.892;6.906;2022-12-29T07:59:25;3.33;;;1.13;;
18716;SDS011;9487;50.892;6.906;2022-12-29T08:01:52;4.63;;;1.30;;
18716;SDS011;9487;50.892;6.906;2022-12-29T08:04:19;4.57;;;1.10;;
18716;SDS011;9487;50.892;6.906;2022-12-29T08:06:47;3.43;;;1.07;;
18716;SDS011;9487;50.892;6.906;2022-12-29T08:09:14;4.43;;;1.30;;
18716;SDS011;9487;50.892;6.906;2022-12-29T08:11:41;4.70;;;1.00;;
18716;SDS011;9487;50.892;6.906;2022-12-29T08:14:09;6.67;;;1.43;;
18716;SDS011;9487;50.892;6.906;2022-12-29T08:16:36;4.07;;;1.23;;
18716;SDS011;9487;50.892;6.906;2022-12-29T08:19:02;3.47;;;1.10;;
18716;SDS011;9487;50.892;6.906;2022-12-29T08:21:30;2.70;;;1.10;;
18716;SDS011;9487;50.892;6.906;2022-12-29T08:23:58;4.53;;;0.97;;
18716;SDS011;9487;50.892;6.906;2022-12-29T08:26:25;3.53;;;1.37;;
18716;SDS011;9487;50.892;6.906;2022-12-29T08:28:52;3.87;;;1.07;;
18716;SDS011;9487;50.892;6.906;2022-12-29T08:31:20;3.53;;;1.50;;
18716;SDS011;9487;50.892;6.906;2022-12-29T08:33:47;3.23;;;1.30;;
18716;SDS011;9487;50.892;6.906;2022-12-29T08:36:13;3.33;;;1.23;;
18716;SDS011;9487;50.892;6.906;2022-12-29T08:38:40;2.60;;;0.90;;
18716;SDS011;9487;50.892;6.906;2022-12-29T08:41:08;2.63;;;0.90;;
18716;SDS011;9487;50.892;6.906;2022-12-29T08:43:35;2.57;;;0.90;;
18716;SDS011;9487;50.892;6.906;2022-12-29T08:46:02;4.17;;;1.10;;
18716;SDS011;9487;50.892;6.906;2022-12-29T08:48:29;3.13;;;1.07;;
18716;SDS011;9487;50.892;6.906;2022-12-29T08:50:56;4.20;;;1.20;;
18716;SDS011;9487;50.892;6.906;2022-12-29T08:53:23;3.90;;;1.20;;
18716;SDS011;9487;50.892;6.906;2022-12-29T08:55:54;2.90;;;1.00;;
18716;SDS011;9487;50.892;6.906;2022-12-29T08:58:24;5.83;;;1.57;;
18716;SDS011;9487;50.892;6.906;2022-12-29T09:00:51;4.70;;;1.50;;
18716;SDS011;9487;50.892;6.906;2022-12-29T09:03:19;3.27;;;1.13;;
18716;SDS011;9487;50.892;6.906;2022-12-29T09:05:47;3.80;;;1.43;;
18716;SDS011;9487;50.892;6.906;2022-12-29T09:08:14;2.37;;;0.90;;
18716;SDS011;9487;50.892;6.906;2022-12-29T09:10:41;2.83;;;1.03;;
18716;SDS011;9487;50.892;6.906;2022-12-29T09:13:08;5.13;;;0.97;;
18716;SDS011;9487;50.892;6.906;2022-12-29T09:15:37;3.10;;;0.90;;
18716;SDS011;9487;50.892;6.906;2022-12-29T09:18:03;5.30;;;1.73;;
18716;SDS011;9487;50.892;6.906;2022-12-29T09:20:30;5.10;;;1.50;;
18716;SDS011;9487;50.892;6.906;2022-12-29T09:22:57;2.07;;;1.00;;
18716;SDS011;9487;50.892;6.906;2022-12-29T09:25:24;2.57;;;0.90;;
18716;SDS011;9487;50.892;6.906;2022-12-29T09:27:51;5.27;;;1.40;;
18716;SDS011;9487;50.892;6.906;2022-12-29T09:30:19;7.07;;;1.53;;
18716;SDS011;9487;50.892;6.906;2022-12-29T09:32:48;4.53;;;1.60;;
18716;SDS011;9487;50.892;6.906;2022-12-29T09:35:16;4.17;;;1.60;;
18716;SDS011;9487;50.892;6.906;2022-12-29T09:37:43;5.60;;;1.50;;
18716;SDS011;9487;50.892;6.906;2022-12-29T09:40:26;5.17;;;1.57;;
18716;SDS011;9487;50.892;6.906;2022-12-29T09:43:06;5.17;;;1.50;;
18716;SDS011;9487;50.892;6.906;2022-12-29T09:45:50;3.13;;;0.97;;
18716;SDS011;9487;50.892;6.906;2022-12-29T09:48:26;4.53;;;1.27;;
18716;SDS011;9487;50.892;6.906;2022-12-29T09:50:57;5.00;;;1.37;;
18716;SDS011;9487;50.892;6.906;2022-12-29T09:53:27;4.10;;;1.30;;
18716;SDS011;9487;50.892;6.906;2022-12-29T09:55:58;5.47;;;1.10;;
18716;SDS011;9487;50.892;6.906;2022-12-29T09:58:28;4.80;;;2.00;;
18716;SDS011;9487;50.892;6.906;2022-12-29T10:01:01;5.43;;;1.20;;
18716;SDS011;9487;50.892;6.906;2022-12-29T10:03:35;4.40;;;1.83;;
18716;SDS011;9487;50.892;6.906;2022-12-29T10:06:11;3.93;;;1.27;;
18716;SDS011;9487;50.892;6.906;2022-12-29T10:08:42;3.57;;;1.10;;
18716;SDS011;9487;50.892;6.906;2022-12-29T10:11:16;4.50;;;1.40;;
18716;SDS011;9487;50.892;6.906;2022-12-29T10:13:59;5.37;;;1.30;;
18716;SDS011;9487;50.892;6.906;2022-12-29T10:16:39;4.73;;;1.77;;
18716;SDS011;9487;50.892;6.906;2022-12-29T10:19:19;4.60;;;1.30;;
18716;SDS011;9487;50.892;6.906;2022-12-29T10:22:02;5.73;;;1.60;;
18716;SDS011;9487;50.892;6.906;2022-12-29T10:24:37;5.60;;;1.60;;
18716;SDS011;9487;50.892;6.906;2022-12-29T10:27:05;3.07;;;1.30;;
18716;SDS011;9487;50.892;6.906;2022-12-29T10:29:39;4.97;;;1.30;;
18716;SDS011;9487;50.892;6.906;2022-12-29T10:32:13;5.00;;;1.23;;
18716;SDS011;9487;50.892;6.906;2022-12-29T10:34:49;3.67;;;1.33;;
18716;SDS011;9487;50.892;6.906;2022-12-29T10:37:25;5.33;;;1.03;;
18716;SDS011;9487;50.892;6.906;2022-12-29T10:39:56;4.17;;;1.50;;
18716;SDS011;9487;50.892;6.906;2022-12-29T10:42:25;4.10;;;1.20;;
18716;SDS011;9487;50.892;6.906;2022-12-29T10:44:53;5.67;;;1.30;;
18716;SDS011;9487;50.892;6.906;2022-12-29T10:47:21;5.63;;;1.50;;
18716;SDS011;9487;50.892;6.906;2022-12-29T10:49:52;3.10;;;1.23;;
18716;SDS011;9487;50.892;6.906;2022-12-29T10:52:19;3.40;;;1.23;;
18716;SDS011;9487;50.892;6.906;2022-12-29T10:54:49;4.70;;;1.33;;
18716;SDS011;9487;50.892;6.906;2022-12-29T10:57:23;4.90;;;1.23;;
18716;SDS011;9487;50.892;6.906;2022-12-29T10:59:53;3.00;;;1.40;;
18716;SDS011;9487;50.892;6.906;2022-12-29T11:02:25;3.23;;;1.43;;
18716;SDS011;9487;50.892;6.906;2022-12-29T11:05:12;5.27;;;1.40;;
18716;SDS011;9487;50.892;6.906;2022-12-29T11:07:49;5.07;;;1.30;;
18716;SDS011;9487;50.892;6.906;2022-12-29T11:10:18;4.50;;;1.37;;
18716;SDS011;9487;50.892;6.906;2022-12-29T11:12:55;2.13;;;1.03;;
18716;SDS011;9487;50.892;6.906;2022-12-29T11:15:23;3.07;;;1.10;;
18716;SDS011;9487;50.892;6.906;2022-12-29T11:17:51;4.03;;;1.27;;
18716;SDS011;9487;50.892;6.906;2022-12-29T11:20:27;3.87;;;1.10;;
18716;SDS011;9487;50.892;6.906;2022-12-29T11:23:00;5.33;;;0.90;;
18716;SDS011;9487;50.892;6.906;2022-12-29T11:25:28;5.83;;;1.57;;
18716;SDS011;9487;50.892;6.906;2022-12-29T11:27:55;4.47;;;1.20;;
18716;SDS011;9487;50.892;6.906;2022-12-29T11:30:25;4.33;;;1.77;;
18716;SDS011;9487;50.892;6.906;2022-12-29T11:32:54;4.10;;;1.40;;
18716;SDS011;9487;50.892;6.906;2022-12-29T11:35:34;1.83;;;1.20;;
18716;SDS011;9487;50.892;6.906;2022-12-29T11:38:04;5.43;;;1.47;;
18716;SDS011;9487;50.892;6.906;2022-12-29T11:40:31;4.43;;;1.40;;
18716;SDS011;9487;50.892;6.906;2022-12-29T11:43:03;3.37;;;1.17;;
18716;SDS011;9487;50.892;6.906;2022-12-29T11:45:31;5.60;;;1.33;;
18716;SDS011;9487;50.892;6.906;2022-12-29T11:48:05;4.90;;;1.53;;
18716;SDS011;9487;50.892;6.906;2022-12-29T11:50:36;3.03;;;1.20;;
18716;SDS011;9487;50.892;6.906;2022-12-29T11:53:07;4.70;;;1.40;;
18716;SDS011;9487;50.892;6.906;2022-12-29T11:55:46;4.23;;;1.60;;
18716;SDS011;9487;50.892;6.906;2022-12-29T11:58:18;4.67;;;1.20;;
18716;SDS011;9487;50.892;6.906;2022-12-29T12:00:45;2.73;;;0.80;;
18716;SDS011;9487;50.892;6.906;2022-12-29T12:03:16;3.73;;;1.40;;
18716;SDS011;9487;50.892;6.906;2022-12-29T12:05:47;3.83;;;1.40;;
18716;SDS011;9487;50.892;6.906;2022-12-29T12:08:19;4.07;;;1.30;;
18716;SDS011;9487;50.892;6.906;2022-12-29T12:10:55;4.50;;;1.20;;
18716;SDS011;9487;50.892;6.906;2022-12-29T12:13:29;5.97;;;1.07;;
18716;SDS011;9487;50.892;6.906;2022-12-29T12:16:02;3.63;;;1.03;;
18716;SDS011;9487;50.892;6.906;2022-12-29T12:18:37;3.10;;;1.20;;
18716;SDS011;9487;50.892;6.906;2022-12-29T12:21:10;5.07;;;1.70;;
18716;SDS011;9487;50.892;6.906;2022-12-29T12:23:45;5.77;;;1.10;;
18716;SDS011;9487;50.892;6.906;2022-12-29T12:26:27;5.13;;;1.40;;
18716;SDS011;9487;50.892;6.906;2022-12-29T12:28:59;5.57;;;1.50;;
18716;SDS011;9487;50.892;6.906;2022-12-29T12:31:34;5.60;;;1.40;;
18716;SDS011;9487;50.892;6.906;2022-12-29T12:34:11;3.73;;;1.40;;
18716;SDS011;9487;50.892;6.906;2022-12-29T12:36:48;3.93;;;1.43;;
18716;SDS011;9487;50.892;6.906;2022-12-29T12:39:26;5.30;;;1.47;;
18716;SDS011;9487;50.892;6.906;2022-12-29T12:42:00;3.50;;;1.80;;
18716;SDS011;9487;50.892;6.906;2022-12-29T12:44:39;5.63;;;1.40;;
18716;SDS011;9487;50.892;6.906;2022-12-29T12:47:34;5.50;;;1.50;;
18716;SDS011;9487;50.892;6.906;2022-12-29T12:50:22;6.27;;;1.60;;
18716;SDS011;9487;50.892;6.906;2022-12-29T12:53:15;4.00;;;1.47;;
18716;SDS011;9487;50.892;6.906;2022-12-29T12:55:56;6.20;;;1.40;;
18716;SDS011;9487;50.892;6.906;2022-12-29T12:58:32;7.57;;;1.10;;
18716;SDS011;9487;50.892;6.906;2022-12-29T13:01:10;3.47;;;0.90;;
18716;SDS011;9487;50.892;6.906;2022-12-29T13:03:53;3.97;;;1.40;;
18716;SDS011;9487;50.892;6.906;2022-12-29T13:06:34;2.93;;;1.00;;
18716;SDS011;9487;50.892;6.906;2022-12-29T13:09:22;4.20;;;1.80;;
18716;SDS011;9487;50.892;6.906;2022-12-29T13:11:58;3.90;;;1.20;;
18716;SDS011;9487;50.892;6.906;2022-12-29T13:14:37;6.00;;;1.30;;
18716;SDS011;9487;50.892;6.906;2022-12-29T13:17:15;5.33;;;1.33;;
18716;SDS011;9487;50.892;6.906;2022-12-29T13:19:50;3.97;;;1.30;;
18716;SDS011;9487;50.892;6.906;2022-12-29T13:22:27;3.63;;;1.17;;
18716;SDS011;9487;50.892;6.906;2022-12-29T13:25:05;6.10;;;1.43;;
18716;SDS011;9487;50.892;6.906;2022-12-29T13:27:44;4.77;;;1.40;;
18716;SDS011;9487;50.892;6.906;2022-12-29T13:30:18;5.37;;;1.80;;
18716;SDS011;9487;50.892;6.906;2022-12-29T13:32:49;5.17;;;1.70;;
18716;SDS011;9487;50.892;6.906;2022-12-29T13:35:27;4.73;;;1.33;;
18716;SDS011;9487;50.892;6.906;2022-12-29T13:38:09;9.10;;;1.67;;
18716;SDS011;9487;50.892;6.906;2022-12-29T13:40:41;4.83;;;1.30;;
18716;SDS011;9487;50.892;6.906;2022-12-29T13:43:11;3.70;;;1.20;;
18716;SDS011;9487;50.892;6.906;2022-12-29T13:45:39;6.00;;;1.90;;
18716;SDS011;9487;50.892;6.906;2022-12-29T13:48:09;6.57;;;1.47;;
18716;SDS011;9487;50.892;6.906;2022-12-29T13:50:43;6.20;;;1.53;;
18716;SDS011;9487;50.892;6.906;2022-12-29T13:53:15;7.20;;;1.60;;
18716;SDS011;9487;50.892;6.906;2022-12-29T13:55:53;3.73;;;1.10;;
18716;SDS011;9487;50.892;6.906;2022-12-29T13:58:26;4.60;;;1.30;;
18716;SDS011;9487;50.892;6.906;2022-12-29T14:00:59;3.50;;;1.70;;
18716;SDS011;9487;50.892;6.906;2022-12-29T14:06:23;2.87;;;1.10;;
18716;SDS011;9487;50.892;6.906;2022-12-29T14:08:52;4.40;;;1.30;;
18716;SDS011;9487;50.892;6.906;2022-12-29T14:11:23;5.13;;;1.30;;
18716;SDS011;9487;50.892;6.906;2022-12-29T14:13:55;6.87;;;1.30;;
18716;SDS011;9487;50.892;6.906;2022-12-29T14:16:26;4.67;;;1.10;;
18716;SDS011;9487;50.892;6.906;2022-12-29T14:18:56;3.50;;;1.03;;
18716;SDS011;9487;50.892;6.906;2022-12-29T14:21:31;4.53;;;1.57;;
18716;SDS011;9487;50.892;6.906;2022-12-29T14:30:07;6.33;;;2.00;;
18716;SDS011;9487;50.892;6.906;2022-12-29T14:33:24;4.17;;;1.40;;
18716;SDS011;9487;50.892;6.906;2022-12-29T14:35:56;5.13;;;1.37;;
18716;SDS011;9487;50.892;6.906;2022-12-29T14:38:43;5.07;;;1.43;;
18716;SDS011;9487;50.892;6.906;2022-12-29T14:41:16;6.37;;;1.60;;
18716;SDS011;9487;50.892;6.906;2022-12-29T14:43:57;3.77;;;1.60;;
18716;SDS011;9487;50.892;6.906;2022-12-29T14:49:21;6.13;;;1.60;;
18716;SDS011;9487;50.892;6.906;2022-12-29T14:51:50;4.77;;;1.93;;
18716;SDS011;9487;50.892;6.906;2022-12-29T14:57:25;5.13;;;1.20;;
18716;SDS011;9487;50.892;6.906;2022-12-29T14:59:56;4.47;;;1.63;;
18716;SDS011;9487;50.892;6.906;2022-12-29T15:02:33;4.70;;;1.27;;
18716;SDS011;9487;50.892;6.906;2022-12-29T15:05:10;7.23;;;1.60;;
18716;SDS011;9487;50.892;6.906;2022-12-29T15:07:51;3.87;;;1.63;;
18716;SDS011;9487;50.892;6.906;2022-12-29T15:10:19;5.03;;;1.33;;
18716;SDS011;9487;50.892;6.906;2022-12-29T15:12:49;5.00;;;1.97;;
18716;SDS011;9487;50.892;6.906;2022-12-29T15:15:20;5.23;;;1.80;;
18716;SDS011;9487;50.892;6.906;2022-12-29T15:17:49;5.17;;;1.87;;
18716;SDS011;9487;50.892;6.906;2022-12-29T15:20:24;5.80;;;1.80;;
18716;SDS011;9487;50.892;6.906;2022-12-29T15:22:53;6.10;;;1.93;;
18716;SDS011;9487;50.892;6.906;2022-12-29T15:25:22;5.77;;;1.73;;
18716;SDS011;9487;50.892;6.906;2022-12-29T15:27:50;7.70;;;2.23;;
18716;SDS011;9487;50.892;6.906;2022-12-29T15:30:18;4.17;;;1.63;;
18716;SDS011;9487;50.892;6.906;2022-12-29T15:32:47;5.87;;;2.07;;
18716;SDS011;9487;50.892;6.906;2022-12-29T15:37:59;4.90;;;2.00;;
18716;SDS011;9487;50.892;6.906;2022-12-29T15:40:29;5.97;;;1.50;;
18716;SDS011;9487;50.892;6.906;2022-12-29T15:45:53;5.37;;;2.13;;